createdAt,value
2023-11-11T00:00:37.837Z,86.42
2023-11-11T00:03:25.800Z,86.49
2023-11-11T00:05:53.534Z,86.67
2023-11-11T00:08:23.583Z,86.73
2023-11-11T00:10:51.373Z,86.93
2023-11-11T00:13:20.974Z,87.33
2023-11-11T00:15:48.820Z,87.23
2023-11-11T00:18:19.295Z,87.45
2023-11-11T00:20:51.982Z,87.82
2023-11-11T00:23:22.467Z,87.82
2023-11-11T00:25:50.433Z,87.75
2023-11-11T00:28:18.343Z,87.82
2023-11-11T00:30:47.139Z,88.01
2023-11-11T00:33:15.185Z,87.95
2023-11-11T00:35:43.298Z,87.94
2023-11-11T00:38:11.394Z,87.81
2023-11-11T00:40:41.292Z,87.96
2023-11-11T00:43:10.290Z,88.07
2023-11-11T00:45:38.304Z,88.31
2023-11-11T00:48:06.266Z,88.53
2023-11-11T00:50:34.130Z,88.72
2023-11-11T00:53:02.421Z,88.65
2023-11-11T00:55:30.570Z,88.71
2023-11-11T00:57:59.920Z,88.92
2023-11-11T01:00:27.784Z,88.97
2023-11-11T01:02:55.873Z,89.03
2023-11-11T01:05:24.852Z,89.14
2023-11-11T01:07:53.117Z,89.21
2023-11-11T01:10:23.874Z,89.20
2023-11-11T01:12:55.251Z,89.18
2023-11-11T01:15:23.324Z,89.07
2023-11-11T01:17:51.317Z,89.11
2023-11-11T01:20:19.219Z,89.11
2023-11-11T01:22:47.618Z,89.18
2023-11-11T01:25:15.402Z,89.22
2023-11-11T01:27:43.287Z,89.12
2023-11-11T01:30:11.527Z,89.12
2023-11-11T01:32:40.208Z,89.22
2023-11-11T01:35:08.518Z,89.30
2023-11-11T01:37:36.247Z,89.37
2023-11-11T01:40:04.508Z,89.43
2023-11-11T01:42:32.336Z,89.51
2023-11-11T01:45:02.869Z,89.54
2023-11-11T01:47:32.193Z,89.69
2023-11-11T01:49:59.935Z,89.75
2023-11-11T01:52:29.198Z,89.81
2023-11-11T01:54:58.007Z,89.91
2023-11-11T01:57:26.702Z,89.88
2023-11-11T01:59:56.082Z,89.56
2023-11-11T02:02:24.243Z,89.54
2023-11-11T02:04:52.229Z,89.70
2023-11-11T02:07:20.681Z,89.81
2023-11-11T02:09:49.833Z,89.78
2023-11-11T02:12:19.024Z,89.66
2023-11-11T02:14:47.102Z,89.79
2023-11-11T02:17:14.847Z,89.88
2023-11-11T02:19:42.575Z,89.72
2023-11-11T02:22:11.238Z,89.85
2023-11-11T02:24:41.756Z,89.83
2023-11-11T02:27:09.881Z,89.76
2023-11-11T02:29:45.237Z,89.87
2023-11-11T02:32:14.308Z,90.05
2023-11-11T02:34:42.394Z,90.18
2023-11-11T02:37:10.158Z,90.28
2023-11-11T02:39:38.010Z,90.34
2023-11-11T02:42:05.862Z,90.34
2023-11-11T02:44:33.533Z,90.39
2023-11-11T02:47:01.284Z,90.42
2023-11-11T02:49:29.803Z,90.44
2023-11-11T02:51:57.563Z,90.43
2023-11-11T02:54:26.902Z,90.48
2023-11-11T02:56:54.810Z,90.43
2023-11-11T02:59:22.744Z,90.47
2023-11-11T03:01:52.337Z,90.48
2023-11-11T03:04:20.336Z,90.50
2023-11-11T03:06:48.231Z,90.54
2023-11-11T03:09:16.632Z,90.59
2023-11-11T03:11:44.860Z,90.60
2023-11-11T03:14:12.622Z,90.57
2023-11-11T03:16:42.084Z,90.57
2023-11-11T03:19:10.499Z,90.59
2023-11-11T03:21:38.213Z,90.59
2023-11-11T03:24:07.287Z,90.59
2023-11-11T03:26:35.055Z,90.55
2023-11-11T03:29:03.479Z,90.54
2023-11-11T03:31:31.236Z,90.60
2023-11-11T03:33:58.968Z,90.64
2023-11-11T03:36:26.831Z,90.62
2023-11-11T03:38:54.608Z,90.64
2023-11-11T03:41:22.678Z,90.66
2023-11-11T03:43:50.502Z,90.65
2023-11-11T03:46:18.544Z,90.65
2023-11-11T03:48:46.500Z,90.68
2023-11-11T03:51:14.197Z,90.69
2023-11-11T03:53:41.877Z,90.70
2023-11-11T03:56:09.700Z,90.72
2023-11-11T03:58:39.837Z,90.74
2023-11-11T04:01:10.535Z,90.74
2023-11-11T04:03:40.772Z,90.76
2023-11-11T04:06:10.548Z,90.76
2023-11-11T04:08:40.878Z,90.78
2023-11-11T04:11:09.613Z,90.80
2023-11-11T04:13:41.849Z,90.79
2023-11-11T04:16:11.369Z,90.80
2023-11-11T04:18:39.706Z,90.76
2023-11-11T04:21:07.697Z,90.71
2023-11-11T04:23:36.011Z,90.53
2023-11-11T04:26:03.937Z,90.38
2023-11-11T04:28:31.685Z,90.49
2023-11-11T04:30:59.329Z,90.37
2023-11-11T04:33:29.019Z,90.30
2023-11-11T04:35:56.871Z,90.43
2023-11-11T04:38:28.384Z,90.45
2023-11-11T04:40:58.305Z,90.63
2023-11-11T04:43:26.137Z,90.65
2023-11-11T04:48:43.326Z,90.63
2023-11-11T04:51:11.295Z,90.64
2023-11-11T04:53:39.084Z,90.79
2023-11-11T04:56:07.088Z,90.87
2023-11-11T04:58:39.448Z,90.76
2023-11-11T05:01:07.180Z,90.73
2023-11-11T05:03:35.970Z,90.74
2023-11-11T05:06:04.387Z,90.38
2023-11-11T05:08:34.020Z,90.07
2023-11-11T05:11:02.619Z,90.08
2023-11-11T05:13:35.169Z,90.01
2023-11-11T05:16:15.490Z,90.23
2023-11-11T05:18:48.210Z,90.38
2023-11-11T05:21:17.814Z,90.29
2023-11-11T05:23:45.608Z,90.10
2023-11-11T05:26:14.941Z,90.15
2023-11-11T05:28:42.729Z,90.36
2023-11-11T05:31:10.732Z,90.29
2023-11-11T05:33:39.110Z,90.42
2023-11-11T05:36:09.469Z,90.47
2023-11-11T05:38:37.338Z,90.45
2023-11-11T05:41:05.458Z,90.50
2023-11-11T05:43:33.284Z,90.38
2023-11-11T05:46:01.394Z,90.41
2023-11-11T05:48:30.179Z,90.58
2023-11-11T05:50:58.283Z,90.84
2023-11-11T05:53:26.452Z,90.92
2023-11-11T05:55:54.134Z,90.73
2023-11-11T05:58:21.994Z,90.81
2023-11-11T06:00:49.687Z,90.90
2023-11-11T06:03:19.318Z,91.01
2023-11-11T06:05:50.317Z,90.76
2023-11-11T06:08:17.948Z,90.88
2023-11-11T06:10:45.860Z,90.91
2023-11-11T06:13:13.559Z,90.80
2023-11-11T06:15:41.585Z,90.85
2023-11-11T06:18:09.596Z,91.02
2023-11-11T06:20:37.458Z,91.03
2023-11-11T06:25:38.368Z,91.30
2023-11-11T06:28:07.869Z,91.42
2023-11-11T06:30:36.166Z,91.54
2023-11-11T06:33:04.132Z,91.63
2023-11-11T06:35:31.945Z,91.68
2023-11-11T06:37:59.617Z,91.75
2023-11-11T06:40:28.512Z,91.82
2023-11-11T06:42:57.031Z,91.84
2023-11-11T06:45:25.154Z,91.88
2023-11-11T06:47:53.109Z,91.90
2023-11-11T06:50:23.171Z,91.91
2023-11-11T06:52:50.972Z,91.92
2023-11-11T06:55:18.780Z,91.92
2023-11-11T06:57:46.562Z,91.86
2023-11-11T07:00:20.146Z,91.88
2023-11-11T07:02:48.897Z,91.94
2023-11-11T07:05:16.758Z,91.92
2023-11-11T07:07:44.953Z,91.89
2023-11-11T07:10:13.385Z,91.91
2023-11-11T07:12:42.429Z,91.85
2023-11-11T07:15:11.572Z,91.80
2023-11-11T07:17:42.734Z,91.74
2023-11-11T07:20:11.775Z,91.72
2023-11-11T07:22:40.222Z,91.75
2023-11-11T07:25:10.350Z,91.76
2023-11-11T07:27:38.274Z,91.69
2023-11-11T07:30:10.863Z,91.58
2023-11-11T07:32:47.272Z,91.57
2023-11-11T07:35:21.078Z,91.62
2023-11-11T07:37:50.834Z,91.72
2023-11-11T07:40:18.588Z,91.88
2023-11-11T07:42:46.334Z,92.00
2023-11-11T07:45:14.266Z,92.12
2023-11-11T07:47:42.635Z,92.33
2023-11-11T07:50:10.842Z,92.36
2023-11-11T07:52:38.710Z,92.12
2023-11-11T07:55:07.170Z,91.81
2023-11-11T08:00:07.731Z,91.10
2023-11-11T08:02:37.412Z,90.66
2023-11-11T08:05:05.522Z,90.19
2023-11-11T08:07:33.276Z,89.94
2023-11-11T08:10:00.979Z,89.68
2023-11-11T08:12:30.508Z,89.46
2023-11-11T08:15:01.609Z,88.97
2023-11-11T08:17:29.518Z,88.97
2023-11-11T08:19:57.672Z,88.79
2023-11-11T08:22:26.705Z,88.53
2023-11-11T08:24:54.409Z,88.53
2023-11-11T08:27:22.157Z,88.47
2023-11-11T08:29:50.431Z,88.37
2023-11-11T08:32:18.417Z,88.32
2023-11-11T08:34:46.097Z,88.36
2023-11-11T08:37:14.749Z,88.29
2023-11-11T08:39:43.415Z,88.36
2023-11-11T08:42:11.184Z,88.43
2023-11-11T08:58:16.103Z,88.57
2023-11-11T09:00:47.089Z,88.55
2023-11-11T09:03:15.066Z,88.53
2023-11-11T09:05:42.876Z,88.65
2023-11-11T09:08:10.724Z,89.14
2023-11-11T09:10:39.239Z,89.92
2023-11-11T09:13:07.056Z,88.68
2023-11-11T09:15:35.042Z,88.00
2023-11-11T09:18:03.183Z,87.78
2023-11-11T09:20:33.398Z,87.69
2023-11-11T09:23:01.281Z,87.65
2023-11-11T09:25:30.953Z,87.64
2023-11-11T09:27:59.056Z,87.74
2023-11-11T09:30:26.908Z,87.77
2023-11-11T09:32:55.188Z,87.76
2023-11-11T09:35:23.476Z,87.85
2023-11-11T09:37:52.308Z,87.94
2023-11-11T09:40:20.043Z,87.95
2023-11-11T09:42:48.384Z,88.04
2023-11-11T09:47:52.301Z,88.20
2023-11-11T09:50:27.844Z,88.30
2023-11-11T09:52:58.067Z,88.36
2023-11-11T09:55:26.963Z,88.46
2023-11-11T09:57:58.069Z,88.42
2023-11-11T10:00:28.881Z,88.45
2023-11-11T10:02:57.818Z,88.54
2023-11-11T10:05:26.749Z,88.59
2023-11-11T10:07:56.765Z,88.62
2023-11-11T10:10:25.932Z,88.77
2023-11-11T10:12:53.816Z,88.82
2023-11-11T10:15:22.717Z,88.81
2023-11-11T10:17:50.688Z,88.85
2023-11-11T10:20:18.717Z,88.82
2023-11-11T10:22:48.641Z,88.91
2023-11-11T10:25:19.446Z,89.15
2023-11-11T10:27:56.067Z,89.27
2023-11-11T10:30:25.972Z,89.46
2023-11-11T10:32:55.654Z,89.46
2023-11-11T10:35:25.766Z,89.25
2023-11-11T10:37:53.936Z,89.04
2023-11-11T10:40:22.482Z,89.00
2023-11-11T10:42:51.174Z,88.80
2023-11-11T10:45:19.277Z,88.71
2023-11-11T10:47:48.286Z,88.72
2023-11-11T10:50:16.277Z,88.60
2023-11-11T10:52:44.928Z,88.52
2023-11-11T10:55:14.118Z,88.44
2023-11-11T10:57:43.681Z,88.31
2023-11-11T11:00:22.446Z,88.11
2023-11-11T11:02:54.638Z,87.97
2023-11-11T11:05:45.704Z,87.95
2023-11-11T11:08:23.308Z,87.99
2023-11-11T11:11:28.541Z,87.86
2023-11-11T11:14:07.116Z,87.68
2023-11-11T11:16:39.481Z,87.69
2023-11-11T11:19:08.934Z,87.80
2023-11-11T11:21:36.742Z,87.90
2023-11-11T11:24:11.003Z,87.91
2023-11-11T11:26:38.903Z,87.92
2023-11-11T11:29:15.063Z,88.08
2023-11-11T11:32:05.662Z,88.13
2023-11-11T11:34:37.318Z,88.06
2023-11-11T11:37:09.238Z,88.06
2023-11-11T11:40:02.193Z,88.04
2023-11-11T11:42:31.613Z,88.02
2023-11-11T11:45:00.340Z,87.94
2023-11-11T11:47:35.067Z,87.91
2023-11-11T11:50:04.962Z,87.92
2023-11-11T11:52:33.220Z,87.98
2023-11-11T11:55:01.186Z,87.95
2023-11-11T11:57:29.163Z,87.83
2023-11-11T12:00:16.094Z,87.88
2023-11-11T12:02:44.320Z,87.96
2023-11-11T12:05:13.750Z,87.97
2023-11-11T12:07:41.864Z,88.02
2023-11-11T12:10:12.410Z,88.13
2023-11-11T12:12:42.311Z,88.20
2023-11-11T12:15:12.158Z,88.11
2023-11-11T12:17:48.682Z,88.11
2023-11-11T12:20:19.090Z,88.19
2023-11-11T12:22:48.599Z,88.23
2023-11-11T12:25:16.660Z,88.29
2023-11-11T12:27:44.617Z,88.26
2023-11-11T12:30:20.342Z,88.24
2023-11-11T12:33:09.884Z,88.28
2023-11-11T12:35:39.985Z,88.30
2023-11-11T12:38:25.564Z,88.27
2023-11-11T12:40:54.787Z,88.30
2023-11-11T12:43:23.960Z,88.42
2023-11-11T12:45:56.429Z,88.43
2023-11-11T12:48:30.586Z,88.32
2023-11-11T12:50:58.609Z,88.22
2023-11-11T12:53:26.840Z,88.18
2023-11-11T12:56:06.050Z,88.08
2023-11-11T12:58:34.251Z,88.10
2023-11-11T13:01:06.441Z,87.95
2023-11-11T13:03:34.971Z,87.88
2023-11-11T13:06:08.175Z,87.82
2023-11-11T13:08:36.425Z,87.80
2023-11-11T13:11:05.164Z,87.68
2023-11-11T13:13:34.862Z,87.59
2023-11-11T13:16:05.241Z,87.54
2023-11-11T13:18:33.495Z,87.59
2023-11-11T13:21:02.598Z,87.67
2023-11-11T13:23:31.655Z,87.73
2023-11-11T13:26:00.172Z,87.84
2023-11-11T13:28:29.797Z,87.97
2023-11-11T13:30:58.329Z,88.02
2023-11-11T13:33:26.838Z,87.97
2023-11-11T13:35:56.768Z,88.07
2023-11-11T13:38:24.648Z,88.14
2023-11-11T13:40:53.405Z,88.23
2023-11-11T13:43:24.334Z,88.20
2023-11-11T13:47:09.963Z,88.30
2023-11-11T13:49:38.185Z,88.28
2023-11-11T13:52:06.576Z,88.22
2023-11-11T13:54:34.490Z,88.18
2023-11-11T13:57:02.269Z,88.23
2023-11-11T13:59:29.993Z,88.24
2023-11-11T14:01:59.907Z,88.31
2023-11-11T14:04:28.753Z,88.42
2023-11-11T14:06:57.763Z,88.51
2023-11-11T14:09:26.717Z,88.58
2023-11-11T14:11:54.438Z,88.66
2023-11-11T14:14:22.206Z,88.80
2023-11-11T14:16:50.070Z,88.91
2023-11-11T14:19:18.093Z,89.07
2023-11-11T14:21:45.795Z,89.13
2023-11-11T14:24:13.451Z,89.18
2023-11-11T14:26:47.904Z,89.22
2023-11-11T14:29:15.946Z,89.27
2023-11-11T14:31:44.075Z,89.28
2023-11-11T14:34:12.058Z,89.26
2023-11-11T14:36:40.359Z,89.23
2023-11-11T14:39:09.973Z,89.23
2023-11-11T14:41:38.756Z,89.24
2023-11-11T14:44:07.213Z,89.24
2023-11-11T14:46:36.847Z,89.26
2023-11-11T14:49:10.268Z,89.26
2023-11-11T14:51:38.099Z,89.23
2023-11-11T14:54:06.332Z,89.23
2023-11-11T14:56:36.237Z,89.28
2023-11-11T14:59:05.226Z,89.34
2023-11-11T15:01:33.838Z,89.41
2023-11-11T15:04:02.107Z,89.43
2023-11-11T15:06:33.699Z,89.46
2023-11-11T15:09:01.896Z,89.47
2023-11-11T15:11:29.889Z,89.55
2023-11-11T15:14:03.699Z,89.61
2023-11-11T15:16:33.166Z,89.56
2023-11-11T15:19:02.783Z,89.50
2023-11-11T15:21:30.897Z,89.50
2023-11-11T15:23:58.917Z,89.55
2023-11-11T15:26:27.110Z,89.55
2023-11-11T15:28:54.977Z,89.50
2023-11-11T15:31:29.270Z,89.56
2023-11-11T15:33:59.185Z,89.67
2023-11-11T15:36:27.407Z,89.70
2023-11-11T15:38:57.388Z,89.55
2023-11-11T15:41:25.427Z,89.57
2023-11-11T15:43:53.933Z,89.69
2023-11-11T15:46:22.092Z,89.77
2023-11-11T15:48:49.911Z,89.84
2023-11-11T15:51:23.105Z,89.91
2023-11-11T15:53:53.666Z,89.94
2023-11-11T15:56:21.732Z,89.98
2023-11-11T15:58:50.042Z,90.07
2023-11-11T16:01:19.737Z,90.19
2023-11-11T16:03:51.011Z,90.27
2023-11-11T16:06:19.291Z,90.31
2023-11-11T16:08:47.174Z,90.36
2023-11-11T16:11:18.167Z,90.40
2023-11-11T16:13:46.000Z,90.45
2023-11-11T16:16:20.820Z,90.49
2023-11-11T16:18:49.879Z,90.35
2023-11-11T16:21:22.619Z,90.30
2023-11-11T16:23:53.070Z,90.35
2023-11-11T16:26:21.653Z,90.44
2023-11-11T16:28:49.408Z,90.58
2023-11-11T16:31:24.901Z,90.69
2023-11-11T16:33:54.438Z,90.75
2023-11-11T16:36:25.383Z,90.78
2023-11-11T16:38:55.153Z,90.68
2023-11-11T16:41:24.787Z,90.62
2023-11-11T16:43:52.974Z,90.65
2023-11-11T16:46:22.918Z,90.71
2023-11-11T16:48:51.290Z,90.72
2023-11-11T16:51:20.603Z,90.80
2023-11-11T16:53:48.492Z,90.81
2023-11-11T16:56:18.482Z,90.86
2023-11-11T16:58:46.255Z,90.89
2023-11-11T17:01:15.601Z,90.91
2023-11-11T17:03:43.480Z,90.93
2023-11-11T17:06:11.494Z,90.79
2023-11-11T17:08:40.090Z,90.83
2023-11-11T17:11:09.558Z,90.84
2023-11-11T17:13:40.807Z,90.76
2023-11-11T17:16:10.393Z,90.85
2023-11-11T17:18:38.464Z,90.99
2023-11-11T17:21:06.248Z,91.08
2023-11-11T17:23:34.073Z,91.01
2023-11-11T17:26:01.797Z,91.09
2023-11-11T17:28:31.239Z,91.15
2023-11-11T17:30:59.687Z,91.23
2023-11-11T17:33:35.951Z,91.31
2023-11-11T17:36:12.209Z,91.33
2023-11-11T17:38:41.254Z,91.17
2023-11-11T17:41:13.584Z,91.12
2023-11-11T17:43:42.704Z,91.21
2023-11-11T17:46:19.199Z,91.13
2023-11-11T17:48:48.077Z,91.10
2023-11-11T17:51:16.882Z,91.10
2023-11-11T17:53:44.708Z,91.02
2023-11-11T17:56:20.535Z,91.14
2023-11-11T17:58:49.044Z,91.22
2023-11-11T18:01:18.115Z,91.23
2023-11-11T18:03:47.070Z,91.16
2023-11-11T18:06:14.905Z,91.18
2023-11-11T18:08:42.929Z,91.08
2023-11-11T18:11:11.413Z,90.96
2023-11-11T18:13:39.609Z,91.01
2023-11-11T18:16:18.293Z,90.90
2023-11-11T18:18:46.788Z,90.80
2023-11-11T18:21:16.075Z,90.79
2023-11-11T18:23:45.223Z,90.85
2023-11-11T18:26:13.609Z,90.90
2023-11-11T18:28:41.643Z,90.89
2023-11-11T18:31:09.622Z,90.83
2023-11-11T18:33:37.703Z,90.80
2023-11-11T18:36:07.183Z,90.90
2023-11-11T18:38:36.719Z,90.89
2023-11-11T18:41:05.196Z,90.84
2023-11-11T18:43:33.116Z,90.80
2023-11-11T18:46:01.167Z,90.81
2023-11-11T18:48:29.371Z,90.77
2023-11-11T18:50:57.159Z,90.73
2023-11-11T18:53:24.941Z,90.66
2023-11-11T18:55:52.656Z,90.63
2023-11-11T18:58:21.842Z,90.64
2023-11-11T19:00:50.550Z,90.67
2023-11-11T19:03:19.009Z,90.74
2023-11-11T19:05:46.892Z,90.76
2023-11-11T19:08:14.712Z,90.86
2023-11-11T19:10:43.378Z,90.86
2023-11-11T19:13:11.775Z,90.70
2023-11-11T19:15:39.587Z,90.65
2023-11-11T19:18:07.962Z,90.62
2023-11-11T19:20:36.254Z,90.59
2023-11-11T19:23:05.227Z,90.58
2023-11-11T19:25:33.160Z,90.59
2023-11-11T19:28:01.350Z,90.62
2023-11-11T19:30:29.820Z,90.66
2023-11-11T19:32:57.778Z,90.72
2023-11-11T19:35:25.842Z,90.78
2023-11-11T19:37:55.393Z,90.84
2023-11-11T19:40:23.755Z,90.89
2023-11-11T19:42:51.767Z,90.95
2023-11-11T19:45:19.515Z,90.99
2023-11-11T19:47:47.685Z,91.03
2023-11-11T19:50:15.568Z,91.11
2023-11-11T19:52:43.360Z,91.20
2023-11-11T19:55:11.179Z,91.36
2023-11-11T19:57:41.551Z,91.54
2023-11-11T20:00:12.720Z,91.75
2023-11-11T20:02:41.332Z,91.95
2023-11-11T20:05:09.555Z,92.13
2023-11-11T20:07:37.728Z,92.31
2023-11-11T20:10:06.795Z,92.45
2023-11-11T20:12:37.449Z,92.52
2023-11-11T20:15:12.148Z,92.53
2023-11-11T20:17:41.237Z,92.51
2023-11-11T20:20:13.138Z,92.56
2023-11-11T20:22:42.062Z,92.58
2023-11-11T20:25:10.122Z,92.70
2023-11-11T20:27:38.085Z,92.80
2023-11-11T20:30:10.655Z,92.91
2023-11-11T20:32:38.618Z,93.00
2023-11-11T20:35:12.520Z,93.04
2023-11-11T20:37:43.755Z,93.03
2023-11-11T20:40:17.028Z,92.91
2023-11-11T20:42:45.582Z,92.80
2023-11-11T20:45:13.706Z,92.66
2023-11-11T20:47:41.620Z,92.57
2023-11-11T20:50:11.736Z,92.48
2023-11-11T20:52:39.928Z,92.49
2023-11-11T20:55:08.507Z,92.52
2023-11-11T20:57:36.363Z,92.41
2023-11-11T21:00:07.138Z,92.22
2023-11-11T21:02:36.278Z,92.06
2023-11-11T21:05:05.585Z,92.05
2023-11-11T21:07:35.301Z,92.16
2023-11-11T21:10:03.345Z,92.28
2023-11-11T21:12:31.009Z,92.39
2023-11-11T21:14:59.721Z,92.48
2023-11-11T21:17:28.611Z,92.53
2023-11-11T21:19:56.970Z,92.56
2023-11-11T21:22:25.710Z,92.59
2023-11-11T21:24:53.597Z,92.62
2023-11-11T21:27:21.410Z,92.67
2023-11-11T21:29:49.202Z,92.74
2023-11-11T21:32:17.073Z,92.82
2023-11-11T21:34:44.996Z,92.85
2023-11-11T21:37:12.953Z,92.86
2023-11-11T21:39:41.204Z,92.88
2023-11-11T21:42:09.036Z,92.90
2023-11-11T21:44:36.685Z,92.86
2023-11-11T21:47:04.884Z,92.77
2023-11-11T21:49:32.885Z,92.80
2023-11-11T21:52:00.618Z,92.85
2023-11-11T21:54:28.362Z,92.90
2023-11-11T21:56:56.167Z,92.91
2023-11-11T21:59:24.052Z,92.93
2023-11-11T22:01:52.025Z,92.93
2023-11-11T22:04:19.934Z,92.89
2023-11-11T22:06:47.791Z,92.85
2023-11-11T22:09:16.202Z,92.83
2023-11-11T22:11:44.197Z,92.78
2023-11-11T22:14:12.032Z,92.77
2023-11-11T22:16:39.956Z,92.84
2023-11-11T22:19:07.741Z,92.88
2023-11-11T22:21:35.395Z,92.86
2023-11-11T22:24:03.080Z,92.87
2023-11-11T22:26:30.755Z,92.89
2023-11-11T22:28:58.586Z,92.97
2023-11-11T22:31:27.393Z,93.04
2023-11-11T22:33:55.055Z,93.07
2023-11-11T22:36:23.438Z,92.96
2023-11-11T22:38:52.133Z,92.80
2023-11-11T22:41:20.302Z,92.75
2023-11-11T22:43:50.638Z,92.81
2023-11-11T22:46:20.187Z,92.51
2023-11-11T22:48:47.959Z,92.26
2023-11-11T22:51:15.735Z,92.30
2023-11-11T22:53:44.663Z,92.43
2023-11-11T22:56:12.755Z,92.52
2023-11-11T22:58:40.736Z,92.46
2023-11-11T23:01:08.541Z,92.25
2023-11-11T23:03:38.343Z,92.37
2023-11-11T23:06:06.161Z,92.45
2023-11-11T23:08:34.051Z,92.42
2023-11-11T23:11:01.988Z,92.36
2023-11-11T23:13:31.057Z,92.10
2023-11-11T23:15:58.815Z,91.85
2023-11-11T23:18:26.683Z,91.76
2023-11-11T23:21:07.099Z,91.83
2023-11-11T23:23:45.228Z,91.84
2023-11-11T23:26:14.810Z,91.86
2023-11-11T23:28:43.184Z,91.77
2023-11-11T23:31:11.061Z,91.85
2023-11-11T23:33:39.308Z,91.90
2023-11-11T23:36:07.636Z,91.94
2023-11-11T23:38:40.123Z,91.97
2023-11-11T23:41:09.493Z,92.07
2023-11-11T23:43:38.274Z,92.04
2023-11-11T23:46:06.197Z,92.04
2023-11-11T23:48:34.049Z,91.99
2023-11-11T23:51:02.098Z,92.08
2023-11-11T23:53:29.746Z,92.08
2023-11-11T23:55:57.755Z,92.19
2023-11-11T23:58:25.968Z,92.26
